sensor_id;sensor_type;location;lat;lon;timestamp;temperature;humidity
17891;DHT22;9071;48.220;14.480;2024-02-26T00:00:55;-0.10;99.90
17891;DHT22;9071;48.220;14.480;2024-02-26T00:05:58;-0.20;99.90
17891;DHT22;9071;48.220;14.480;2024-02-26T00:11:00;-0.20;99.90
17891;DHT22;9071;48.220;14.480;2024-02-26T00:16:03;-0.20;99.90
17891;DHT22;9071;48.220;14.480;2024-02-26T00:21:06;-0.30;99.90
17891;DHT22;9071;48.220;14.480;2024-02-26T00:26:08;-0.40;99.90
17891;DHT22;9071;48.220;14.480;2024-02-26T00:31:11;-0.30;99.90
17891;DHT22;9071;48.220;14.480;2024-02-26T00:36:14;-0.40;99.90
17891;DHT22;9071;48.220;14.480;2024-02-26T00:41:17;-0.40;99.90
17891;DHT22;9071;48.220;14.480;2024-02-26T00:46:19;-0.50;99.90
17891;DHT22;9071;48.220;14.480;2024-02-26T00:51:22;-0.40;99.90
17891;DHT22;9071;48.220;14.480;2024-02-26T00:56:24;-0.40;99.90
17891;DHT22;9071;48.220;14.480;2024-02-26T01:01:26;-0.50;99.90
17891;DHT22;9071;48.220;14.480;2024-02-26T01:06:30;-0.60;99.90
17891;DHT22;9071;48.220;14.480;2024-02-26T01:11:32;-0.70;99.90
17891;DHT22;9071;48.220;14.480;2024-02-26T01:16:34;-0.70;99.90
17891;DHT22;9071;48.220;14.480;2024-02-26T01:21:38;-0.60;99.90
17891;DHT22;9071;48.220;14.480;2024-02-26T01:26:40;-0.60;99.90
17891;DHT22;9071;48.220;14.480;2024-02-26T01:31:42;-0.70;99.90
17891;DHT22;9071;48.220;14.480;2024-02-26T01:36:45;-0.70;99.90
17891;DHT22;9071;48.220;14.480;2024-02-26T01:41:47;-0.60;99.90
17891;DHT22;9071;48.220;14.480;2024-02-26T01:46:49;-0.50;99.90
17891;DHT22;9071;48.220;14.480;2024-02-26T01:51:53;-0.60;99.90
17891;DHT22;9071;48.220;14.480;2024-02-26T01:56:55;-0.60;99.90
17891;DHT22;9071;48.220;14.480;2024-02-26T02:01:59;-0.80;99.90
17891;DHT22;9071;48.220;14.480;2024-02-26T02:07:04;-0.80;99.90
17891;DHT22;9071;48.220;14.480;2024-02-26T02:12:07;-0.80;99.90
17891;DHT22;9071;48.220;14.480;2024-02-26T02:17:10;-0.80;99.90
17891;DHT22;9071;48.220;14.480;2024-02-26T02:22:13;-0.80;99.90
17891;DHT22;9071;48.220;14.480;2024-02-26T02:27:15;-0.90;99.90
17891;DHT22;9071;48.220;14.480;2024-02-26T02:32:18;-0.80;99.90
17891;DHT22;9071;48.220;14.480;2024-02-26T02:37:22;-0.90;99.90
17891;DHT22;9071;48.220;14.480;2024-02-26T02:42:24;-0.90;99.90
17891;DHT22;9071;48.220;14.480;2024-02-26T02:47:27;-0.90;99.90
17891;DHT22;9071;48.220;14.480;2024-02-26T02:52:31;-0.90;99.90
17891;DHT22;9071;48.220;14.480;2024-02-26T02:57:33;-0.90;99.90
17891;DHT22;9071;48.220;14.480;2024-02-26T03:02:35;-0.50;99.90
17891;DHT22;9071;48.220;14.480;2024-02-26T03:07:39;-0.50;99.90
17891;DHT22;9071;48.220;14.480;2024-02-26T03:12:41;-0.70;99.90
17891;DHT22;9071;48.220;14.480;2024-02-26T03:17:43;-0.90;99.90
17891;DHT22;9071;48.220;14.480;2024-02-26T03:22:46;-1.00;99.90
17891;DHT22;9071;48.220;14.480;2024-02-26T03:27:48;-1.10;99.90
17891;DHT22;9071;48.220;14.480;2024-02-26T03:32:50;-1.30;99.90
17891;DHT22;9071;48.220;14.480;2024-02-26T03:37:54;-1.40;99.90
17891;DHT22;9071;48.220;14.480;2024-02-26T03:42:56;-1.40;99.90
17891;DHT22;9071;48.220;14.480;2024-02-26T03:47:58;-1.50;99.90
17891;DHT22;9071;48.220;14.480;2024-02-26T03:53:02;-1.50;99.90
17891;DHT22;9071;48.220;14.480;2024-02-26T03:58:04;-1.50;99.90
17891;DHT22;9071;48.220;14.480;2024-02-26T04:03:06;-1.40;99.90
17891;DHT22;9071;48.220;14.480;2024-02-26T04:08:10;-1.40;99.90
17891;DHT22;9071;48.220;14.480;2024-02-26T04:13:12;-1.40;99.90
17891;DHT22;9071;48.220;14.480;2024-02-26T04:18:14;-1.40;99.90
17891;DHT22;9071;48.220;14.480;2024-02-26T04:23:17;-1.50;99.90
17891;DHT22;9071;48.220;14.480;2024-02-26T04:28:19;-1.60;99.90
17891;DHT22;9071;48.220;14.480;2024-02-26T04:33:22;-1.70;99.90
17891;DHT22;9071;48.220;14.480;2024-02-26T04:38:25;-1.80;99.90
17891;DHT22;9071;48.220;14.480;2024-02-26T04:43:27;-1.90;99.90
17891;DHT22;9071;48.220;14.480;2024-02-26T04:48:29;-2.00;99.90
17891;DHT22;9071;48.220;14.480;2024-02-26T04:53:32;-1.90;99.90
17891;DHT22;9071;48.220;14.480;2024-02-26T04:58:35;-1.80;99.90
17891;DHT22;9071;48.220;14.480;2024-02-26T05:03:37;-1.90;99.90
17891;DHT22;9071;48.220;14.480;2024-02-26T05:08:40;-1.90;99.90
17891;DHT22;9071;48.220;14.480;2024-02-26T05:13:42;-1.90;99.90
17891;DHT22;9071;48.220;14.480;2024-02-26T05:18:46;-1.90;99.90
17891;DHT22;9071;48.220;14.480;2024-02-26T05:23:49;-1.90;99.90
17891;DHT22;9071;48.220;14.480;2024-02-26T05:28:51;-1.90;99.90
17891;DHT22;9071;48.220;14.480;2024-02-26T05:33:53;-1.90;99.90
17891;DHT22;9071;48.220;14.480;2024-02-26T05:38:56;-1.80;99.90
17891;DHT22;9071;48.220;14.480;2024-02-26T05:43:58;-1.90;99.90
17891;DHT22;9071;48.220;14.480;2024-02-26T05:49:00;-1.90;99.90
17891;DHT22;9071;48.220;14.480;2024-02-26T05:54:04;-1.90;99.90
17891;DHT22;9071;48.220;14.480;2024-02-26T05:59:06;-1.90;99.90
17891;DHT22;9071;48.220;14.480;2024-02-26T06:04:08;-1.90;99.90
17891;DHT22;9071;48.220;14.480;2024-02-26T06:09:12;-1.80;99.90
17891;DHT22;9071;48.220;14.480;2024-02-26T06:14:14;-1.70;99.90
17891;DHT22;9071;48.220;14.480;2024-02-26T06:19:18;-1.50;99.90
17891;DHT22;9071;48.220;14.480;2024-02-26T06:24:22;-1.30;99.90
17891;DHT22;9071;48.220;14.480;2024-02-26T06:29:24;-1.20;99.90
17891;DHT22;9071;48.220;14.480;2024-02-26T06:34:26;-1.00;99.90
17891;DHT22;9071;48.220;14.480;2024-02-26T06:39:29;-0.90;99.90
17891;DHT22;9071;48.220;14.480;2024-02-26T06:44:31;-0.60;99.90
17891;DHT22;9071;48.220;14.480;2024-02-26T06:49:33;-0.50;99.90
17891;DHT22;9071;48.220;14.480;2024-02-26T06:54:37;-0.40;99.90
17891;DHT22;9071;48.220;14.480;2024-02-26T06:59:39;-0.30;99.90
17891;DHT22;9071;48.220;14.480;2024-02-26T07:04:41;-0.10;99.90
17891;DHT22;9071;48.220;14.480;2024-02-26T07:09:44;0.10;99.90
17891;DHT22;9071;48.220;14.480;2024-02-26T07:14:47;0.30;99.90
17891;DHT22;9071;48.220;14.480;2024-02-26T07:19:49;0.50;99.90
17891;DHT22;9071;48.220;14.480;2024-02-26T07:24:52;0.60;99.90
17891;DHT22;9071;48.220;14.480;2024-02-26T07:29:55;0.60;99.90
17891;DHT22;9071;48.220;14.480;2024-02-26T07:34:56;1.00;99.90
17891;DHT22;9071;48.220;14.480;2024-02-26T07:40:00;1.30;99.90
17891;DHT22;9071;48.220;14.480;2024-02-26T07:45:02;1.40;99.90
17891;DHT22;9071;48.220;14.480;2024-02-26T07:50:05;1.10;99.90
17891;DHT22;9071;48.220;14.480;2024-02-26T07:55:09;1.30;99.90
17891;DHT22;9071;48.220;14.480;2024-02-26T08:00:12;1.70;99.90
17891;DHT22;9071;48.220;14.480;2024-02-26T08:05:17;2.50;99.90
17891;DHT22;9071;48.220;14.480;2024-02-26T08:10:21;3.20;99.90
17891;DHT22;9071;48.220;14.480;2024-02-26T08:15:23;3.40;99.90
17891;DHT22;9071;48.220;14.480;2024-02-26T08:20:25;3.40;99.90
17891;DHT22;9071;48.220;14.480;2024-02-26T08:25:28;3.20;99.90
17891;DHT22;9071;48.220;14.480;2024-02-26T08:30:30;3.60;99.90
17891;DHT22;9071;48.220;14.480;2024-02-26T08:35:32;4.10;99.90
17891;DHT22;9071;48.220;14.480;2024-02-26T08:40:36;5.20;99.90
17891;DHT22;9071;48.220;14.480;2024-02-26T08:45:38;6.10;99.90
17891;DHT22;9071;48.220;14.480;2024-02-26T08:50:40;6.80;99.90
17891;DHT22;9071;48.220;14.480;2024-02-26T08:55:44;6.60;99.90
17891;DHT22;9071;48.220;14.480;2024-02-26T09:00:46;6.80;99.90
17891;DHT22;9071;48.220;14.480;2024-02-26T09:05:48;6.60;99.90
17891;DHT22;9071;48.220;14.480;2024-02-26T09:10:51;7.10;99.90
17891;DHT22;9071;48.220;14.480;2024-02-26T09:15:53;7.00;99.90
17891;DHT22;9071;48.220;14.480;2024-02-26T09:20:56;6.80;99.90
17891;DHT22;9071;48.220;14.480;2024-02-26T09:25:59;6.60;99.90
17891;DHT22;9071;48.220;14.480;2024-02-26T09:31:01;6.50;99.90
17891;DHT22;9071;48.220;14.480;2024-02-26T09:36:04;6.70;99.90
17891;DHT22;9071;48.220;14.480;2024-02-26T09:41:14;6.40;99.90
17891;DHT22;9071;48.220;14.480;2024-02-26T09:46:17;6.60;99.90
17891;DHT22;9071;48.220;14.480;2024-02-26T09:51:23;6.70;99.90
17891;DHT22;9071;48.220;14.480;2024-02-26T09:56:27;6.80;99.90
17891;DHT22;9071;48.220;14.480;2024-02-26T10:01:29;7.00;99.90
17891;DHT22;9071;48.220;14.480;2024-02-26T10:06:34;7.00;99.90
17891;DHT22;9071;48.220;14.480;2024-02-26T10:11:40;7.20;99.90
17891;DHT22;9071;48.220;14.480;2024-02-26T10:16:44;7.50;99.90
17891;DHT22;9071;48.220;14.480;2024-02-26T10:21:45;7.70;99.90
17891;DHT22;9071;48.220;14.480;2024-02-26T10:26:49;7.70;99.90
17891;DHT22;9071;48.220;14.480;2024-02-26T10:31:52;7.80;99.90
17891;DHT22;9071;48.220;14.480;2024-02-26T10:36:54;8.00;99.90
17891;DHT22;9071;48.220;14.480;2024-02-26T10:41:57;8.20;99.90
17891;DHT22;9071;48.220;14.480;2024-02-26T10:46:59;8.60;99.90
17891;DHT22;9071;48.220;14.480;2024-02-26T10:52:03;8.50;99.90
17891;DHT22;9071;48.220;14.480;2024-02-26T10:57:08;8.60;99.90
17891;DHT22;9071;48.220;14.480;2024-02-26T11:02:13;8.80;99.90
17891;DHT22;9071;48.220;14.480;2024-02-26T11:07:16;8.70;99.90
17891;DHT22;9071;48.220;14.480;2024-02-26T11:12:21;8.70;99.90
17891;DHT22;9071;48.220;14.480;2024-02-26T11:17:26;8.80;99.90
17891;DHT22;9071;48.220;14.480;2024-02-26T11:22:29;9.10;99.90
17891;DHT22;9071;48.220;14.480;2024-02-26T11:27:36;9.20;99.90
17891;DHT22;9071;48.220;14.480;2024-02-26T11:32:40;9.40;99.90
17891;DHT22;9071;48.220;14.480;2024-02-26T11:37:46;9.40;99.90
17891;DHT22;9071;48.220;14.480;2024-02-26T11:42:54;9.60;99.90
17891;DHT22;9071;48.220;14.480;2024-02-26T11:47:57;9.50;99.90
17891;DHT22;9071;48.220;14.480;2024-02-26T11:53:21;9.70;99.90
17891;DHT22;9071;48.220;14.480;2024-02-26T11:58:25;9.50;99.90
17891;DHT22;9071;48.220;14.480;2024-02-26T12:03:27;9.60;99.90
17891;DHT22;9071;48.220;14.480;2024-02-26T12:08:30;9.50;99.90
17891;DHT22;9071;48.220;14.480;2024-02-26T12:13:37;9.50;99.90
17891;DHT22;9071;48.220;14.480;2024-02-26T12:18:40;9.40;99.90
17891;DHT22;9071;48.220;14.480;2024-02-26T12:23:42;9.10;99.90
17891;DHT22;9071;48.220;14.480;2024-02-26T12:28:46;8.90;99.90
17891;DHT22;9071;48.220;14.480;2024-02-26T12:33:48;9.00;99.90
17891;DHT22;9071;48.220;14.480;2024-02-26T12:38:51;9.30;99.90
17891;DHT22;9071;48.220;14.480;2024-02-26T12:43:55;9.40;99.90
17891;DHT22;9071;48.220;14.480;2024-02-26T12:48:57;9.20;99.90
17891;DHT22;9071;48.220;14.480;2024-02-26T12:54:00;9.30;99.90
17891;DHT22;9071;48.220;14.480;2024-02-26T12:59:04;9.30;99.90
17891;DHT22;9071;48.220;14.480;2024-02-26T13:04:07;9.00;99.90
17891;DHT22;9071;48.220;14.480;2024-02-26T13:09:12;9.00;99.90
17891;DHT22;9071;48.220;14.480;2024-02-26T13:14:20;9.10;99.90
17891;DHT22;9071;48.220;14.480;2024-02-26T13:19:23;9.00;99.90
17891;DHT22;9071;48.220;14.480;2024-02-26T13:24:25;9.10;99.90
17891;DHT22;9071;48.220;14.480;2024-02-26T13:29:28;9.20;99.90
17891;DHT22;9071;48.220;14.480;2024-02-26T13:34:30;9.10;99.90
17891;DHT22;9071;48.220;14.480;2024-02-26T13:39:34;9.10;99.90
17891;DHT22;9071;48.220;14.480;2024-02-26T13:44:37;9.20;99.90
17891;DHT22;9071;48.220;14.480;2024-02-26T13:49:41;9.30;99.90
17891;DHT22;9071;48.220;14.480;2024-02-26T13:54:43;9.40;99.90
17891;DHT22;9071;48.220;14.480;2024-02-26T13:59:47;9.30;99.90
17891;DHT22;9071;48.220;14.480;2024-02-26T14:04:50;9.40;99.90
17891;DHT22;9071;48.220;14.480;2024-02-26T14:09:52;9.40;99.90
17891;DHT22;9071;48.220;14.480;2024-02-26T14:14:55;9.70;99.90
17891;DHT22;9071;48.220;14.480;2024-02-26T14:19:59;9.90;99.90
17891;DHT22;9071;48.220;14.480;2024-02-26T14:25:01;9.90;99.90
17891;DHT22;9071;48.220;14.480;2024-02-26T14:30:06;9.90;99.90
17891;DHT22;9071;48.220;14.480;2024-02-26T14:35:09;9.90;99.90
17891;DHT22;9071;48.220;14.480;2024-02-26T14:40:11;9.80;99.90
17891;DHT22;9071;48.220;14.480;2024-02-26T14:45:15;9.80;99.90
17891;DHT22;9071;48.220;14.480;2024-02-26T14:50:17;9.70;99.90
17891;DHT22;9071;48.220;14.480;2024-02-26T14:55:19;9.80;99.90
17891;DHT22;9071;48.220;14.480;2024-02-26T15:00:23;9.80;99.90
17891;DHT22;9071;48.220;14.480;2024-02-26T15:05:25;9.90;99.90
17891;DHT22;9071;48.220;14.480;2024-02-26T15:10:27;9.90;99.90
17891;DHT22;9071;48.220;14.480;2024-02-26T15:15:30;9.90;99.90
17891;DHT22;9071;48.220;14.480;2024-02-26T15:20:33;9.90;99.90
17891;DHT22;9071;48.220;14.480;2024-02-26T15:25:34;9.80;99.90
17891;DHT22;9071;48.220;14.480;2024-02-26T15:30:38;9.70;99.90
17891;DHT22;9071;48.220;14.480;2024-02-26T15:35:40;9.60;99.90
17891;DHT22;9071;48.220;14.480;2024-02-26T15:40:43;9.50;99.90
17891;DHT22;9071;48.220;14.480;2024-02-26T15:45:48;9.30;99.90
17891;DHT22;9071;48.220;14.480;2024-02-26T15:50:50;9.20;99.90
17891;DHT22;9071;48.220;14.480;2024-02-26T15:55:53;9.10;99.90
17891;DHT22;9071;48.220;14.480;2024-02-26T16:00:56;9.00;99.90
17891;DHT22;9071;48.220;14.480;2024-02-26T16:05:58;8.80;99.90
17891;DHT22;9071;48.220;14.480;2024-02-26T16:11:00;8.70;99.90
17891;DHT22;9071;48.220;14.480;2024-02-26T16:16:06;8.70;99.90
17891;DHT22;9071;48.220;14.480;2024-02-26T16:21:10;8.50;99.90
17891;DHT22;9071;48.220;14.480;2024-02-26T16:26:12;8.70;99.90
17891;DHT22;9071;48.220;14.480;2024-02-26T16:31:16;8.60;99.90
17891;DHT22;9071;48.220;14.480;2024-02-26T16:36:18;8.40;99.90
17891;DHT22;9071;48.220;14.480;2024-02-26T16:41:20;8.00;99.90
17891;DHT22;9071;48.220;14.480;2024-02-26T16:46:23;7.80;99.90
17891;DHT22;9071;48.220;14.480;2024-02-26T16:51:25;7.70;99.90
17891;DHT22;9071;48.220;14.480;2024-02-26T16:56:27;7.60;99.90
17891;DHT22;9071;48.220;14.480;2024-02-26T17:01:31;7.40;99.90
17891;DHT22;9071;48.220;14.480;2024-02-26T17:06:33;7.20;99.90
17891;DHT22;9071;48.220;14.480;2024-02-26T17:11:35;7.40;99.90
17891;DHT22;9071;48.220;14.480;2024-02-26T17:16:40;7.60;99.90
17891;DHT22;9071;48.220;14.480;2024-02-26T17:21:42;7.60;99.90
17891;DHT22;9071;48.220;14.480;2024-02-26T17:26:44;7.50;99.90
17891;DHT22;9071;48.220;14.480;2024-02-26T17:31:48;7.40;99.90
17891;DHT22;9071;48.220;14.480;2024-02-26T17:36:50;7.30;99.90
17891;DHT22;9071;48.220;14.480;2024-02-26T17:41:53;7.20;99.90
17891;DHT22;9071;48.220;14.480;2024-02-26T17:46:56;7.20;99.90
17891;DHT22;9071;48.220;14.480;2024-02-26T17:51:58;7.20;99.90
17891;DHT22;9071;48.220;14.480;2024-02-26T17:57:00;7.20;99.90
17891;DHT22;9071;48.220;14.480;2024-02-26T18:02:04;7.00;99.90
17891;DHT22;9071;48.220;14.480;2024-02-26T18:07:06;7.00;99.90
17891;DHT22;9071;48.220;14.480;2024-02-26T18:12:09;6.90;99.90
17891;DHT22;9071;48.220;14.480;2024-02-26T18:17:12;6.80;99.90
17891;DHT22;9071;48.220;14.480;2024-02-26T18:22:15;6.90;99.90
17891;DHT22;9071;48.220;14.480;2024-02-26T18:27:18;6.90;99.90
17891;DHT22;9071;48.220;14.480;2024-02-26T18:32:21;6.80;99.90
17891;DHT22;9071;48.220;14.480;2024-02-26T18:37:23;6.60;99.90
17891;DHT22;9071;48.220;14.480;2024-02-26T18:42:27;6.40;99.90
17891;DHT22;9071;48.220;14.480;2024-02-26T18:47:31;6.30;99.90
17891;DHT22;9071;48.220;14.480;2024-02-26T18:52:33;6.20;99.90
17891;DHT22;9071;48.220;14.480;2024-02-26T18:57:35;6.10;99.90
17891;DHT22;9071;48.220;14.480;2024-02-26T19:02:39;5.90;99.90
17891;DHT22;9071;48.220;14.480;2024-02-26T19:07:41;5.70;99.90
17891;DHT22;9071;48.220;14.480;2024-02-26T19:12:43;5.80;99.90
17891;DHT22;9071;48.220;14.480;2024-02-26T19:17:48;6.00;99.90
17891;DHT22;9071;48.220;14.480;2024-02-26T19:22:50;6.10;99.90
17891;DHT22;9071;48.220;14.480;2024-02-26T19:27:53;5.90;99.90
17891;DHT22;9071;48.220;14.480;2024-02-26T19:32:56;5.80;99.90
17891;DHT22;9071;48.220;14.480;2024-02-26T19:37:58;5.80;99.90
17891;DHT22;9071;48.220;14.480;2024-02-26T19:43:00;5.90;99.90
17891;DHT22;9071;48.220;14.480;2024-02-26T19:48:06;5.90;99.90
17891;DHT22;9071;48.220;14.480;2024-02-26T19:53:08;5.90;99.90
17891;DHT22;9071;48.220;14.480;2024-02-26T19:58:10;5.70;99.90
17891;DHT22;9071;48.220;14.480;2024-02-26T20:03:15;5.40;99.90
17891;DHT22;9071;48.220;14.480;2024-02-26T20:08:17;5.20;99.90
17891;DHT22;9071;48.220;14.480;2024-02-26T20:13:19;5.10;99.90
17891;DHT22;9071;48.220;14.480;2024-02-26T20:18:27;5.00;99.90
17891;DHT22;9071;48.220;14.480;2024-02-26T20:23:29;5.00;99.90
17891;DHT22;9071;48.220;14.480;2024-02-26T20:28:31;5.00;99.90
17891;DHT22;9071;48.220;14.480;2024-02-26T20:33:38;5.00;99.90
17891;DHT22;9071;48.220;14.480;2024-02-26T20:38:41;5.00;99.90
17891;DHT22;9071;48.220;14.480;2024-02-26T20:43:43;5.00;99.90
17891;DHT22;9071;48.220;14.480;2024-02-26T20:48:46;5.00;99.90
17891;DHT22;9071;48.220;14.480;2024-02-26T20:53:48;5.10;99.90
17891;DHT22;9071;48.220;14.480;2024-02-26T20:58:50;5.10;99.90
17891;DHT22;9071;48.220;14.480;2024-02-26T21:03:54;5.10;99.90
17891;DHT22;9071;48.220;14.480;2024-02-26T21:08:56;5.10;99.90
17891;DHT22;9071;48.220;14.480;2024-02-26T21:13:58;5.10;99.90
17891;DHT22;9071;48.220;14.480;2024-02-26T21:19:01;5.10;99.90
17891;DHT22;9071;48.220;14.480;2024-02-26T21:24:06;5.10;99.90
17891;DHT22;9071;48.220;14.480;2024-02-26T21:29:08;5.10;99.90
17891;DHT22;9071;48.220;14.480;2024-02-26T21:34:11;5.10;99.90
17891;DHT22;9071;48.220;14.480;2024-02-26T21:39:15;5.10;99.90
17891;DHT22;9071;48.220;14.480;2024-02-26T21:44:17;4.90;99.90
17891;DHT22;9071;48.220;14.480;2024-02-26T21:49:20;4.80;99.90
17891;DHT22;9071;48.220;14.480;2024-02-26T21:54:22;4.60;99.90
17891;DHT22;9071;48.220;14.480;2024-02-26T21:59:26;4.70;99.90
17891;DHT22;9071;48.220;14.480;2024-02-26T22:04:30;4.70;99.90
17891;DHT22;9071;48.220;14.480;2024-02-26T22:09:32;4.40;99.90
17891;DHT22;9071;48.220;14.480;2024-02-26T22:14:34;4.20;99.90
17891;DHT22;9071;48.220;14.480;2024-02-26T22:19:37;4.40;99.90
17891;DHT22;9071;48.220;14.480;2024-02-26T22:24:39;4.40;99.90
17891;DHT22;9071;48.220;14.480;2024-02-26T22:29:41;4.20;99.90
17891;DHT22;9071;48.220;14.480;2024-02-26T22:34:45;3.90;99.90
17891;DHT22;9071;48.220;14.480;2024-02-26T22:39:47;3.80;99.90
17891;DHT22;9071;48.220;14.480;2024-02-26T22:44:49;3.60;99.90
17891;DHT22;9071;48.220;14.480;2024-02-26T22:49:52;3.50;99.90
17891;DHT22;9071;48.220;14.480;2024-02-26T22:54:54;3.40;99.90
17891;DHT22;9071;48.220;14.480;2024-02-26T22:59:56;3.40;99.90
17891;DHT22;9071;48.220;14.480;2024-02-26T23:05:00;3.40;99.90
17891;DHT22;9071;48.220;14.480;2024-02-26T23:10:02;3.30;99.90
17891;DHT22;9071;48.220;14.480;2024-02-26T23:15:05;3.10;99.90
17891;DHT22;9071;48.220;14.480;2024-02-26T23:20:09;3.00;99.90
17891;DHT22;9071;48.220;14.480;2024-02-26T23:25:13;2.90;99.90
17891;DHT22;9071;48.220;14.480;2024-02-26T23:30:16;2.80;99.90
17891;DHT22;9071;48.220;14.480;2024-02-26T23:35:21;2.70;99.90
17891;DHT22;9071;48.220;14.480;2024-02-26T23:40:23;2.60;99.90
17891;DHT22;9071;48.220;14.480;2024-02-26T23:45:26;2.50;99.90
17891;DHT22;9071;48.220;14.480;2024-02-26T23:50:29;2.50;99.90
17891;DHT22;9071;48.220;14.480;2024-02-26T23:55:32;2.50;99.90
